sensor_id;sensor_type;location;lat;lon;timestamp;P1;durP1;ratioP1;P2;durP2;ratioP2
14526;SDS011;7350;51.208;4.238;2023-03-01T00:00:04;2.67;;;2.28;;
14526;SDS011;7350;51.208;4.238;2023-03-01T00:02:33;3.55;;;2.85;;
14526;SDS011;7350;51.208;4.238;2023-03-01T00:05:01;2.50;;;2.30;;
14526;SDS011;7350;51.208;4.238;2023-03-01T00:07:29;2.90;;;2.22;;
14526;SDS011;7350;51.208;4.238;2023-03-01T00:09:56;2.90;;;2.55;;
14526;SDS011;7350;51.208;4.238;2023-03-01T00:12:23;2.83;;;2.40;;
14526;SDS011;7350;51.208;4.238;2023-03-01T00:14:50;2.55;;;2.35;;
14526;SDS011;7350;51.208;4.238;2023-03-01T00:17:17;2.60;;;2.30;;
14526;SDS011;7350;51.208;4.238;2023-03-01T00:19:44;3.47;;;3.08;;
14526;SDS011;7350;51.208;4.238;2023-03-01T00:22:12;3.13;;;2.83;;
14526;SDS011;7350;51.208;4.238;2023-03-01T00:24:39;2.60;;;2.40;;
14526;SDS011;7350;51.208;4.238;2023-03-01T00:27:06;3.17;;;2.35;;
14526;SDS011;7350;51.208;4.238;2023-03-01T00:29:33;2.97;;;2.67;;
14526;SDS011;7350;51.208;4.238;2023-03-01T00:32:00;2.75;;;2.33;;
14526;SDS011;7350;51.208;4.238;2023-03-01T00:34:27;2.33;;;2.13;;
14526;SDS011;7350;51.208;4.238;2023-03-01T00:36:54;4.95;;;2.47;;
14526;SDS011;7350;51.208;4.238;2023-03-01T00:39:28;3.20;;;2.53;;
14526;SDS011;7350;51.208;4.238;2023-03-01T00:41:55;3.03;;;2.60;;
14526;SDS011;7350;51.208;4.238;2023-03-01T00:44:22;3.40;;;2.70;;
14526;SDS011;7350;51.208;4.238;2023-03-01T00:46:49;2.80;;;2.58;;
14526;SDS011;7350;51.208;4.238;2023-03-01T00:49:16;4.82;;;2.75;;
14526;SDS011;7350;51.208;4.238;2023-03-01T00:51:43;3.90;;;2.60;;
14526;SDS011;7350;51.208;4.238;2023-03-01T00:54:10;2.97;;;2.67;;
14526;SDS011;7350;51.208;4.238;2023-03-01T00:56:38;5.10;;;3.25;;
14526;SDS011;7350;51.208;4.238;2023-03-01T00:59:05;2.70;;;2.50;;
14526;SDS011;7350;51.208;4.238;2023-03-01T01:01:32;2.83;;;2.30;;
14526;SDS011;7350;51.208;4.238;2023-03-01T01:03:59;3.33;;;3.03;;
14526;SDS011;7350;51.208;4.238;2023-03-01T01:06:29;3.05;;;2.75;;
14526;SDS011;7350;51.208;4.238;2023-03-01T01:08:57;3.42;;;2.50;;
14526;SDS011;7350;51.208;4.238;2023-03-01T01:11:25;2.97;;;2.55;;
14526;SDS011;7350;51.208;4.238;2023-03-01T01:13:55;4.03;;;2.60;;
14526;SDS011;7350;51.208;4.238;2023-03-01T01:16:24;3.50;;;2.83;;
14526;SDS011;7350;51.208;4.238;2023-03-01T01:18:53;3.80;;;2.65;;
14526;SDS011;7350;51.208;4.238;2023-03-01T01:21:21;2.95;;;2.63;;
14526;SDS011;7350;51.208;4.238;2023-03-01T01:23:49;3.10;;;2.80;;
14526;SDS011;7350;51.208;4.238;2023-03-01T01:26:17;3.03;;;2.72;;
14526;SDS011;7350;51.208;4.238;2023-03-01T01:28:48;2.47;;;2.28;;
14526;SDS011;7350;51.208;4.238;2023-03-01T01:31:17;3.22;;;2.78;;
14526;SDS011;7350;51.208;4.238;2023-03-01T01:33:45;2.95;;;2.65;;
14526;SDS011;7350;51.208;4.238;2023-03-01T01:36:12;2.92;;;2.63;;
14526;SDS011;7350;51.208;4.238;2023-03-01T01:38:39;3.50;;;2.70;;
14526;SDS011;7350;51.208;4.238;2023-03-01T01:41:07;2.72;;;2.53;;
14526;SDS011;7350;51.208;4.238;2023-03-01T01:43:37;3.22;;;2.72;;
14526;SDS011;7350;51.208;4.238;2023-03-01T01:46:06;3.38;;;2.67;;
14526;SDS011;7350;51.208;4.238;2023-03-01T01:48:44;2.78;;;2.50;;
14526;SDS011;7350;51.208;4.238;2023-03-01T01:51:15;2.80;;;2.58;;
14526;SDS011;7350;51.208;4.238;2023-03-01T01:53:46;3.17;;;2.65;;
14526;SDS011;7350;51.208;4.238;2023-03-01T01:56:19;2.90;;;2.70;;
14526;SDS011;7350;51.208;4.238;2023-03-01T01:58:47;3.78;;;2.90;;
14526;SDS011;7350;51.208;4.238;2023-03-01T02:01:14;3.10;;;2.80;;
14526;SDS011;7350;51.208;4.238;2023-03-01T02:03:43;3.20;;;2.72;;
14526;SDS011;7350;51.208;4.238;2023-03-01T02:06:12;3.17;;;2.40;;
14526;SDS011;7350;51.208;4.238;2023-03-01T02:08:45;3.22;;;2.75;;
14526;SDS011;7350;51.208;4.238;2023-03-01T02:11:14;3.33;;;3.03;;
14526;SDS011;7350;51.208;4.238;2023-03-01T02:13:43;3.63;;;2.60;;
14526;SDS011;7350;51.208;4.238;2023-03-01T02:16:12;3.33;;;3.03;;
14526;SDS011;7350;51.208;4.238;2023-03-01T02:18:40;3.78;;;2.65;;
14526;SDS011;7350;51.208;4.238;2023-03-01T02:21:13;2.97;;;2.70;;
14526;SDS011;7350;51.208;4.238;2023-03-01T02:23:56;3.30;;;3.00;;
14526;SDS011;7350;51.208;4.238;2023-03-01T02:26:29;3.50;;;2.90;;
14526;SDS011;7350;51.208;4.238;2023-03-01T02:29:04;3.22;;;2.63;;
14526;SDS011;7350;51.208;4.238;2023-03-01T02:31:31;2.80;;;2.40;;
14526;SDS011;7350;51.208;4.238;2023-03-01T02:34:08;2.67;;;2.38;;
14526;SDS011;7350;51.208;4.238;2023-03-01T02:36:38;3.00;;;2.70;;
14526;SDS011;7350;51.208;4.238;2023-03-01T02:39:10;2.88;;;2.45;;
14526;SDS011;7350;51.208;4.238;2023-03-01T02:41:44;3.00;;;2.70;;
14526;SDS011;7350;51.208;4.238;2023-03-01T02:44:15;2.92;;;2.63;;
14526;SDS011;7350;51.208;4.238;2023-03-01T02:46:43;2.90;;;2.60;;
14526;SDS011;7350;51.208;4.238;2023-03-01T02:49:19;3.00;;;2.70;;
14526;SDS011;7350;51.208;4.238;2023-03-01T02:51:54;2.70;;;2.45;;
14526;SDS011;7350;51.208;4.238;2023-03-01T02:54:35;3.03;;;2.40;;
14526;SDS011;7350;51.208;4.238;2023-03-01T02:57:05;3.22;;;2.78;;
14526;SDS011;7350;51.208;4.238;2023-03-01T02:59:35;3.08;;;2.78;;
14526;SDS011;7350;51.208;4.238;2023-03-01T03:02:05;2.80;;;2.60;;
14526;SDS011;7350;51.208;4.238;2023-03-01T03:04:32;3.00;;;2.58;;
14526;SDS011;7350;51.208;4.238;2023-03-01T03:06:59;3.63;;;2.70;;
14526;SDS011;7350;51.208;4.238;2023-03-01T03:09:26;3.00;;;2.50;;
14526;SDS011;7350;51.208;4.238;2023-03-01T03:11:54;2.85;;;2.60;;
14526;SDS011;7350;51.208;4.238;2023-03-01T03:14:20;4.07;;;3.10;;
14526;SDS011;7350;51.208;4.238;2023-03-01T03:16:50;3.25;;;2.95;;
14526;SDS011;7350;51.208;4.238;2023-03-01T03:19:17;3.20;;;2.45;;
14526;SDS011;7350;51.208;4.238;2023-03-01T03:21:45;2.92;;;2.63;;
14526;SDS011;7350;51.208;4.238;2023-03-01T03:24:12;3.50;;;2.47;;
14526;SDS011;7350;51.208;4.238;2023-03-01T03:26:39;2.75;;;2.55;;
14526;SDS011;7350;51.208;4.238;2023-03-01T03:29:06;2.92;;;2.63;;
14526;SDS011;7350;51.208;4.238;2023-03-01T03:31:33;3.33;;;3.05;;
14526;SDS011;7350;51.208;4.238;2023-03-01T03:34:01;3.40;;;3.10;;
14526;SDS011;7350;51.208;4.238;2023-03-01T03:36:28;3.33;;;3.05;;
14526;SDS011;7350;51.208;4.238;2023-03-01T03:38:55;3.17;;;2.80;;
14526;SDS011;7350;51.208;4.238;2023-03-01T03:41:22;3.03;;;2.70;;
14526;SDS011;7350;51.208;4.238;2023-03-01T03:43:49;3.58;;;2.90;;
14526;SDS011;7350;51.208;4.238;2023-03-01T03:46:16;4.00;;;2.95;;
14526;SDS011;7350;51.208;4.238;2023-03-01T03:48:44;2.95;;;2.65;;
14526;SDS011;7350;51.208;4.238;2023-03-01T03:51:13;3.40;;;3.10;;
14526;SDS011;7350;51.208;4.238;2023-03-01T03:53:42;3.45;;;3.08;;
14526;SDS011;7350;51.208;4.238;2023-03-01T03:56:10;2.88;;;2.58;;
14526;SDS011;7350;51.208;4.238;2023-03-01T03:58:37;3.50;;;3.20;;
14526;SDS011;7350;51.208;4.238;2023-03-01T04:01:04;3.10;;;2.80;;
14526;SDS011;7350;51.208;4.238;2023-03-01T04:03:32;2.97;;;2.78;;
14526;SDS011;7350;51.208;4.238;2023-03-01T04:06:00;3.38;;;3.08;;
14526;SDS011;7350;51.208;4.238;2023-03-01T04:08:30;3.88;;;3.22;;
14526;SDS011;7350;51.208;4.238;2023-03-01T04:10:58;3.50;;;3.20;;
14526;SDS011;7350;51.208;4.238;2023-03-01T04:13:46;3.83;;;3.45;;
14526;SDS011;7350;51.208;4.238;2023-03-01T04:16:13;4.38;;;3.20;;
14526;SDS011;7350;51.208;4.238;2023-03-01T04:18:40;3.45;;;3.05;;
14526;SDS011;7350;51.208;4.238;2023-03-01T04:21:07;3.70;;;3.40;;
14526;SDS011;7350;51.208;4.238;2023-03-01T04:23:37;3.83;;;3.42;;
14526;SDS011;7350;51.208;4.238;2023-03-01T04:26:06;3.35;;;3.00;;
14526;SDS011;7350;51.208;4.238;2023-03-01T04:28:34;3.65;;;2.88;;
14526;SDS011;7350;51.208;4.238;2023-03-01T04:31:02;3.80;;;3.40;;
14526;SDS011;7350;51.208;4.238;2023-03-01T04:33:37;3.30;;;3.00;;
14526;SDS011;7350;51.208;4.238;2023-03-01T04:36:05;3.15;;;2.85;;
14526;SDS011;7350;51.208;4.238;2023-03-01T04:38:34;3.80;;;3.40;;
14526;SDS011;7350;51.208;4.238;2023-03-01T04:41:04;3.15;;;2.85;;
14526;SDS011;7350;51.208;4.238;2023-03-01T04:43:31;3.25;;;2.95;;
14526;SDS011;7350;51.208;4.238;2023-03-01T04:46:02;3.60;;;3.30;;
14526;SDS011;7350;51.208;4.238;2023-03-01T04:48:31;3.50;;;3.20;;
14526;SDS011;7350;51.208;4.238;2023-03-01T04:50:58;3.50;;;3.20;;
14526;SDS011;7350;51.208;4.238;2023-03-01T04:53:26;3.65;;;3.35;;
14526;SDS011;7350;51.208;4.238;2023-03-01T04:55:54;3.20;;;2.90;;
14526;SDS011;7350;51.208;4.238;2023-03-01T04:58:22;3.80;;;3.50;;
14526;SDS011;7350;51.208;4.238;2023-03-01T05:00:50;4.72;;;3.30;;
14526;SDS011;7350;51.208;4.238;2023-03-01T05:03:17;3.22;;;2.60;;
14526;SDS011;7350;51.208;4.238;2023-03-01T05:05:45;6.45;;;3.00;;
14526;SDS011;7350;51.208;4.238;2023-03-01T05:08:13;3.40;;;2.70;;
14526;SDS011;7350;51.208;4.238;2023-03-01T05:10:44;2.88;;;2.53;;
14526;SDS011;7350;51.208;4.238;2023-03-01T05:13:12;3.33;;;2.40;;
14526;SDS011;7350;51.208;4.238;2023-03-01T05:15:41;4.10;;;2.70;;
14526;SDS011;7350;51.208;4.238;2023-03-01T05:18:08;2.92;;;2.45;;
14526;SDS011;7350;51.208;4.238;2023-03-01T05:20:36;2.63;;;2.30;;
14526;SDS011;7350;51.208;4.238;2023-03-01T05:23:04;3.63;;;3.22;;
14526;SDS011;7350;51.208;4.238;2023-03-01T05:25:31;5.72;;;2.70;;
14526;SDS011;7350;51.208;4.238;2023-03-01T05:27:59;3.63;;;2.53;;
14526;SDS011;7350;51.208;4.238;2023-03-01T05:30:29;3.47;;;3.08;;
14526;SDS011;7350;51.208;4.238;2023-03-01T05:32:59;4.63;;;2.47;;
14526;SDS011;7350;51.208;4.238;2023-03-01T05:35:26;3.45;;;2.83;;
14526;SDS011;7350;51.208;4.238;2023-03-01T05:37:54;3.08;;;2.70;;
14526;SDS011;7350;51.208;4.238;2023-03-01T05:40:22;4.13;;;2.85;;
14526;SDS011;7350;51.208;4.238;2023-03-01T05:42:51;4.18;;;2.90;;
14526;SDS011;7350;51.208;4.238;2023-03-01T05:45:19;4.82;;;2.80;;
14526;SDS011;7350;51.208;4.238;2023-03-01T05:47:48;3.97;;;2.60;;
14526;SDS011;7350;51.208;4.238;2023-03-01T05:50:17;4.32;;;2.47;;
14526;SDS011;7350;51.208;4.238;2023-03-01T05:52:46;3.35;;;2.80;;
14526;SDS011;7350;51.208;4.238;2023-03-01T05:55:14;3.70;;;2.50;;
14526;SDS011;7350;51.208;4.238;2023-03-01T05:57:41;4.05;;;2.63;;
14526;SDS011;7350;51.208;4.238;2023-03-01T06:00:09;3.67;;;2.40;;
14526;SDS011;7350;51.208;4.238;2023-03-01T06:02:37;3.85;;;2.53;;
14526;SDS011;7350;51.208;4.238;2023-03-01T06:05:04;3.72;;;2.90;;
14526;SDS011;7350;51.208;4.238;2023-03-01T06:07:33;5.03;;;3.17;;
14526;SDS011;7350;51.208;4.238;2023-03-01T06:10:01;4.80;;;3.00;;
14526;SDS011;7350;51.208;4.238;2023-03-01T06:12:29;2.92;;;2.58;;
14526;SDS011;7350;51.208;4.238;2023-03-01T06:14:57;2.95;;;2.40;;
14526;SDS011;7350;51.208;4.238;2023-03-01T06:17:25;3.33;;;3.00;;
14526;SDS011;7350;51.208;4.238;2023-03-01T06:19:52;2.85;;;2.10;;
14526;SDS011;7350;51.208;4.238;2023-03-01T06:22:19;3.63;;;3.10;;
14526;SDS011;7350;51.208;4.238;2023-03-01T06:24:47;3.75;;;2.60;;
14526;SDS011;7350;51.208;4.238;2023-03-01T06:27:14;3.80;;;2.50;;
14526;SDS011;7350;51.208;4.238;2023-03-01T06:29:41;3.72;;;2.88;;
14526;SDS011;7350;51.208;4.238;2023-03-01T06:32:09;3.10;;;2.78;;
14526;SDS011;7350;51.208;4.238;2023-03-01T06:34:36;3.60;;;3.03;;
14526;SDS011;7350;51.208;4.238;2023-03-01T06:37:03;3.35;;;3.03;;
14526;SDS011;7350;51.208;4.238;2023-03-01T06:39:31;3.22;;;2.92;;
14526;SDS011;7350;51.208;4.238;2023-03-01T06:41:59;3.65;;;3.00;;
14526;SDS011;7350;51.208;4.238;2023-03-01T06:44:27;3.33;;;2.83;;
14526;SDS011;7350;51.208;4.238;2023-03-01T06:46:54;3.10;;;2.58;;
14526;SDS011;7350;51.208;4.238;2023-03-01T06:49:21;3.20;;;2.85;;
14526;SDS011;7350;51.208;4.238;2023-03-01T06:51:48;4.05;;;2.70;;
14526;SDS011;7350;51.208;4.238;2023-03-01T06:54:15;4.07;;;2.80;;
14526;SDS011;7350;51.208;4.238;2023-03-01T06:56:42;4.20;;;2.75;;
14526;SDS011;7350;51.208;4.238;2023-03-01T06:59:13;3.25;;;2.95;;
14526;SDS011;7350;51.208;4.238;2023-03-01T07:01:41;4.53;;;3.10;;
14526;SDS011;7350;51.208;4.238;2023-03-01T07:04:08;4.45;;;2.88;;
14526;SDS011;7350;51.208;4.238;2023-03-01T07:06:36;3.03;;;2.72;;
14526;SDS011;7350;51.208;4.238;2023-03-01T07:09:03;3.67;;;2.83;;
14526;SDS011;7350;51.208;4.238;2023-03-01T07:11:30;3.50;;;2.80;;
14526;SDS011;7350;51.208;4.238;2023-03-01T07:13:57;3.13;;;2.60;;
14526;SDS011;7350;51.208;4.238;2023-03-01T07:16:26;3.25;;;2.95;;
14526;SDS011;7350;51.208;4.238;2023-03-01T07:18:53;3.10;;;2.80;;
14526;SDS011;7350;51.208;4.238;2023-03-01T07:21:20;3.08;;;2.78;;
14526;SDS011;7350;51.208;4.238;2023-03-01T07:23:47;3.58;;;3.08;;
14526;SDS011;7350;51.208;4.238;2023-03-01T07:26:15;3.42;;;2.85;;
14526;SDS011;7350;51.208;4.238;2023-03-01T07:28:42;3.00;;;2.80;;
14526;SDS011;7350;51.208;4.238;2023-03-01T07:31:09;3.42;;;2.92;;
14526;SDS011;7350;51.208;4.238;2023-03-01T07:33:37;3.50;;;3.17;;
14526;SDS011;7350;51.208;4.238;2023-03-01T07:36:04;3.17;;;2.88;;
14526;SDS011;7350;51.208;4.238;2023-03-01T07:38:32;3.60;;;3.00;;
14526;SDS011;7350;51.208;4.238;2023-03-01T07:40:59;3.20;;;2.90;;
14526;SDS011;7350;51.208;4.238;2023-03-01T07:43:28;3.00;;;2.70;;
14526;SDS011;7350;51.208;4.238;2023-03-01T07:45:57;3.53;;;3.10;;
14526;SDS011;7350;51.208;4.238;2023-03-01T07:48:25;3.45;;;3.10;;
14526;SDS011;7350;51.208;4.238;2023-03-01T07:50:53;3.20;;;2.60;;
14526;SDS011;7350;51.208;4.238;2023-03-01T07:53:20;3.97;;;3.10;;
14526;SDS011;7350;51.208;4.238;2023-03-01T07:55:47;4.18;;;2.85;;
14526;SDS011;7350;51.208;4.238;2023-03-01T07:58:14;5.55;;;3.40;;
14526;SDS011;7350;51.208;4.238;2023-03-01T08:00:41;3.85;;;2.78;;
14526;SDS011;7350;51.208;4.238;2023-03-01T08:03:08;3.13;;;2.83;;
14526;SDS011;7350;51.208;4.238;2023-03-01T08:05:35;3.42;;;2.83;;
14526;SDS011;7350;51.208;4.238;2023-03-01T08:08:04;3.08;;;2.70;;
14526;SDS011;7350;51.208;4.238;2023-03-01T08:10:31;3.53;;;3.22;;
14526;SDS011;7350;51.208;4.238;2023-03-01T08:12:58;3.63;;;3.03;;
14526;SDS011;7350;51.208;4.238;2023-03-01T08:15:25;3.88;;;3.13;;
14526;SDS011;7350;51.208;4.238;2023-03-01T08:17:52;3.65;;;2.72;;
14526;SDS011;7350;51.208;4.238;2023-03-01T08:20:19;3.40;;;2.83;;
14526;SDS011;7350;51.208;4.238;2023-03-01T08:22:45;3.55;;;2.90;;
14526;SDS011;7350;51.208;4.238;2023-03-01T08:25:14;4.55;;;2.80;;
14526;SDS011;7350;51.208;4.238;2023-03-01T08:27:41;3.60;;;3.25;;
14526;SDS011;7350;51.208;4.238;2023-03-01T08:30:08;3.83;;;3.10;;
14526;SDS011;7350;51.208;4.238;2023-03-01T08:32:37;4.60;;;3.30;;
14526;SDS011;7350;51.208;4.238;2023-03-01T08:35:05;4.25;;;3.03;;
14526;SDS011;7350;51.208;4.238;2023-03-01T08:37:32;5.38;;;3.10;;
14526;SDS011;7350;51.208;4.238;2023-03-01T08:40:00;4.05;;;2.83;;
14526;SDS011;7350;51.208;4.238;2023-03-01T08:42:30;3.20;;;2.90;;
14526;SDS011;7350;51.208;4.238;2023-03-01T08:44:56;4.82;;;2.85;;
14526;SDS011;7350;51.208;4.238;2023-03-01T08:47:23;4.38;;;2.92;;
14526;SDS011;7350;51.208;4.238;2023-03-01T08:49:51;4.10;;;2.95;;
14526;SDS011;7350;51.208;4.238;2023-03-01T08:52:18;3.30;;;3.00;;
14526;SDS011;7350;51.208;4.238;2023-03-01T08:54:46;3.22;;;2.72;;
14526;SDS011;7350;51.208;4.238;2023-03-01T08:57:13;4.35;;;2.75;;
14526;SDS011;7350;51.208;4.238;2023-03-01T08:59:42;3.53;;;2.60;;
14526;SDS011;7350;51.208;4.238;2023-03-01T09:02:10;5.43;;;2.75;;
14526;SDS011;7350;51.208;4.238;2023-03-01T09:04:40;5.78;;;3.13;;
14526;SDS011;7350;51.208;4.238;2023-03-01T09:07:07;3.45;;;3.03;;
14526;SDS011;7350;51.208;4.238;2023-03-01T09:09:34;3.58;;;2.78;;
14526;SDS011;7350;51.208;4.238;2023-03-01T09:12:01;3.88;;;2.92;;
14526;SDS011;7350;51.208;4.238;2023-03-01T09:14:29;4.15;;;3.10;;
14526;SDS011;7350;51.208;4.238;2023-03-01T09:16:57;4.18;;;2.70;;
14526;SDS011;7350;51.208;4.238;2023-03-01T09:19:27;3.08;;;2.53;;
14526;SDS011;7350;51.208;4.238;2023-03-01T09:21:54;3.10;;;2.75;;
14526;SDS011;7350;51.208;4.238;2023-03-01T09:24:23;3.10;;;2.53;;
14526;SDS011;7350;51.208;4.238;2023-03-01T09:26:52;5.50;;;3.25;;
14526;SDS011;7350;51.208;4.238;2023-03-01T09:29:20;4.60;;;2.53;;
14526;SDS011;7350;51.208;4.238;2023-03-01T09:31:47;3.70;;;2.70;;
14526;SDS011;7350;51.208;4.238;2023-03-01T09:34:15;3.38;;;3.00;;
14526;SDS011;7350;51.208;4.238;2023-03-01T09:36:48;5.22;;;2.80;;
14526;SDS011;7350;51.208;4.238;2023-03-01T09:39:15;2.42;;;2.22;;
14526;SDS011;7350;51.208;4.238;2023-03-01T09:41:44;4.32;;;2.72;;
14526;SDS011;7350;51.208;4.238;2023-03-01T09:44:16;3.92;;;3.00;;
14526;SDS011;7350;51.208;4.238;2023-03-01T09:46:56;3.13;;;2.65;;
14526;SDS011;7350;51.208;4.238;2023-03-01T09:49:27;3.22;;;2.58;;
14526;SDS011;7350;51.208;4.238;2023-03-01T09:51:58;3.22;;;2.35;;
14526;SDS011;7350;51.208;4.238;2023-03-01T09:54:29;3.88;;;2.47;;
14526;SDS011;7350;51.208;4.238;2023-03-01T09:57:01;3.35;;;2.55;;
14526;SDS011;7350;51.208;4.238;2023-03-01T09:59:35;5.35;;;2.92;;
14526;SDS011;7350;51.208;4.238;2023-03-01T10:02:24;2.72;;;2.38;;
14526;SDS011;7350;51.208;4.238;2023-03-01T10:04:58;2.95;;;2.40;;
14526;SDS011;7350;51.208;4.238;2023-03-01T10:07:37;3.55;;;3.03;;
14526;SDS011;7350;51.208;4.238;2023-03-01T10:10:14;3.30;;;2.45;;
14526;SDS011;7350;51.208;4.238;2023-03-01T10:12:48;2.80;;;2.53;;
14526;SDS011;7350;51.208;4.238;2023-03-01T10:15:16;3.17;;;2.70;;
14526;SDS011;7350;51.208;4.238;2023-03-01T10:17:48;4.30;;;2.55;;
14526;SDS011;7350;51.208;4.238;2023-03-01T10:20:21;3.47;;;2.70;;
14526;SDS011;7350;51.208;4.238;2023-03-01T10:22:50;2.67;;;2.47;;
14526;SDS011;7350;51.208;4.238;2023-03-01T10:25:23;3.22;;;2.78;;
14526;SDS011;7350;51.208;4.238;2023-03-01T10:27:59;3.33;;;2.47;;
14526;SDS011;7350;51.208;4.238;2023-03-01T10:30:32;3.45;;;2.60;;
14526;SDS011;7350;51.208;4.238;2023-03-01T10:33:03;3.13;;;2.80;;
14526;SDS011;7350;51.208;4.238;2023-03-01T10:35:42;3.03;;;2.65;;
14526;SDS011;7350;51.208;4.238;2023-03-01T10:38:10;3.42;;;2.80;;
14526;SDS011;7350;51.208;4.238;2023-03-01T10:40:49;3.28;;;2.50;;
14526;SDS011;7350;51.208;4.238;2023-03-01T10:43:18;3.05;;;2.40;;
14526;SDS011;7350;51.208;4.238;2023-03-01T10:45:46;5.15;;;2.90;;
14526;SDS011;7350;51.208;4.238;2023-03-01T10:48:14;3.80;;;2.60;;
14526;SDS011;7350;51.208;4.238;2023-03-01T10:50:45;3.28;;;2.50;;
14526;SDS011;7350;51.208;4.238;2023-03-01T10:53:25;2.60;;;2.40;;
14526;SDS011;7350;51.208;4.238;2023-03-01T10:55:58;3.38;;;2.33;;
14526;SDS011;7350;51.208;4.238;2023-03-01T10:58:27;2.70;;;2.20;;
14526;SDS011;7350;51.208;4.238;2023-03-01T11:00:56;3.72;;;2.67;;
14526;SDS011;7350;51.208;4.238;2023-03-01T11:03:25;2.50;;;2.30;;
14526;SDS011;7350;51.208;4.238;2023-03-01T11:06:03;2.70;;;2.47;;
14526;SDS011;7350;51.208;4.238;2023-03-01T11:08:36;3.03;;;2.72;;
14526;SDS011;7350;51.208;4.238;2023-03-01T11:11:16;3.15;;;2.55;;
14526;SDS011;7350;51.208;4.238;2023-03-01T11:13:58;2.90;;;2.45;;
14526;SDS011;7350;51.208;4.238;2023-03-01T11:16:31;2.97;;;2.15;;
14526;SDS011;7350;51.208;4.238;2023-03-01T11:21:59;2.50;;;2.15;;
14526;SDS011;7350;51.208;4.238;2023-03-01T11:24:30;3.17;;;2.45;;
14526;SDS011;7350;51.208;4.238;2023-03-01T11:27:03;2.45;;;2.25;;
14526;SDS011;7350;51.208;4.238;2023-03-01T11:29:35;3.38;;;2.78;;
14526;SDS011;7350;51.208;4.238;2023-03-01T11:32:07;2.50;;;2.30;;
14526;SDS011;7350;51.208;4.238;2023-03-01T11:34:38;4.10;;;2.20;;
14526;SDS011;7350;51.208;4.238;2023-03-01T11:37:12;4.70;;;3.00;;
14526;SDS011;7350;51.208;4.238;2023-03-01T11:39:51;3.38;;;2.40;;
14526;SDS011;7350;51.208;4.238;2023-03-01T11:42:25;3.03;;;2.20;;
14526;SDS011;7350;51.208;4.238;2023-03-01T11:45:02;6.88;;;2.60;;
14526;SDS011;7350;51.208;4.238;2023-03-01T11:47:39;2.83;;;2.10;;
14526;SDS011;7350;51.208;4.238;2023-03-01T11:50:23;2.22;;;2.00;;
14526;SDS011;7350;51.208;4.238;2023-03-01T11:52:59;3.45;;;2.50;;
14526;SDS011;7350;51.208;4.238;2023-03-01T11:55:40;2.42;;;1.85;;
14526;SDS011;7350;51.208;4.238;2023-03-01T11:58:27;3.03;;;2.17;;
14526;SDS011;7350;51.208;4.238;2023-03-01T12:01:09;3.75;;;2.25;;
14526;SDS011;7350;51.208;4.238;2023-03-01T12:06:43;3.50;;;2.30;;
14526;SDS011;7350;51.208;4.238;2023-03-01T12:09:26;2.85;;;2.33;;
14526;SDS011;7350;51.208;4.238;2023-03-01T12:15:10;3.58;;;2.90;;
14526;SDS011;7350;51.208;4.238;2023-03-01T12:20:55;3.25;;;2.30;;
14526;SDS011;7350;51.208;4.238;2023-03-01T12:23:35;4.72;;;2.40;;
14526;SDS011;7350;51.208;4.238;2023-03-01T12:26:27;4.35;;;2.80;;
14526;SDS011;7350;51.208;4.238;2023-03-01T12:29:02;2.55;;;2.00;;
14526;SDS011;7350;51.208;4.238;2023-03-01T12:32:01;3.20;;;2.30;;
14526;SDS011;7350;51.208;4.238;2023-03-01T12:34:54;2.67;;;2.30;;
14526;SDS011;7350;51.208;4.238;2023-03-01T12:37:40;2.88;;;2.17;;
14526;SDS011;7350;51.208;4.238;2023-03-01T12:40:23;2.28;;;1.77;;
14526;SDS011;7350;51.208;4.238;2023-03-01T12:43:05;3.38;;;1.75;;
14526;SDS011;7350;51.208;4.238;2023-03-01T12:45:52;3.05;;;2.03;;
14526;SDS011;7350;51.208;4.238;2023-03-01T12:48:35;2.80;;;2.00;;
14526;SDS011;7350;51.208;4.238;2023-03-01T12:51:10;2.70;;;2.15;;
14526;SDS011;7350;51.208;4.238;2023-03-01T12:53:41;1.88;;;1.60;;
14526;SDS011;7350;51.208;4.238;2023-03-01T12:56:11;3.60;;;2.35;;
14526;SDS011;7350;51.208;4.238;2023-03-01T12:58:46;2.40;;;2.20;;
14526;SDS011;7350;51.208;4.238;2023-03-01T13:01:22;2.10;;;1.90;;
14526;SDS011;7350;51.208;4.238;2023-03-01T13:04:03;2.53;;;2.30;;
14526;SDS011;7350;51.208;4.238;2023-03-01T13:06:41;2.08;;;1.88;;
14526;SDS011;7350;51.208;4.238;2023-03-01T13:09:19;2.47;;;1.90;;
14526;SDS011;7350;51.208;4.238;2023-03-01T13:11:51;2.30;;;2.10;;
14526;SDS011;7350;51.208;4.238;2023-03-01T13:17:29;2.30;;;2.10;;
14526;SDS011;7350;51.208;4.238;2023-03-01T13:19:58;2.45;;;1.92;;
14526;SDS011;7350;51.208;4.238;2023-03-01T13:22:26;2.92;;;1.85;;
14526;SDS011;7350;51.208;4.238;2023-03-01T13:25:10;3.60;;;2.10;;
14526;SDS011;7350;51.208;4.238;2023-03-01T13:27:40;2.25;;;1.92;;
14526;SDS011;7350;51.208;4.238;2023-03-01T13:36:09;2.50;;;1.98;;
14526;SDS011;7350;51.208;4.238;2023-03-01T13:38:45;2.88;;;2.25;;
14526;SDS011;7350;51.208;4.238;2023-03-01T13:41:13;2.30;;;2.00;;
14526;SDS011;7350;51.208;4.238;2023-03-01T13:43:41;3.03;;;1.92;;
14526;SDS011;7350;51.208;4.238;2023-03-01T13:46:12;2.80;;;2.25;;
14526;SDS011;7350;51.208;4.238;2023-03-01T13:48:44;2.28;;;1.95;;
14526;SDS011;7350;51.208;4.238;2023-03-01T13:51:13;3.90;;;2.20;;
14526;SDS011;7350;51.208;4.238;2023-03-01T13:53:41;2.50;;;2.17;;
14526;SDS011;7350;51.208;4.238;2023-03-01T13:56:12;2.55;;;1.92;;
14526;SDS011;7350;51.208;4.238;2023-03-01T13:58:46;2.10;;;1.63;;
14526;SDS011;7350;51.208;4.238;2023-03-01T14:01:24;2.53;;;2.00;;
14526;SDS011;7350;51.208;4.238;2023-03-01T14:03:53;2.45;;;2.05;;
14526;SDS011;7350;51.208;4.238;2023-03-01T14:06:21;2.58;;;2.10;;
14526;SDS011;7350;51.208;4.238;2023-03-01T14:08:50;2.58;;;1.88;;
14526;SDS011;7350;51.208;4.238;2023-03-01T14:11:31;2.25;;;2.05;;
14526;SDS011;7350;51.208;4.238;2023-03-01T14:14:26;2.10;;;1.90;;
14526;SDS011;7350;51.208;4.238;2023-03-01T14:17:15;2.75;;;2.22;;
14526;SDS011;7350;51.208;4.238;2023-03-01T14:20:00;2.55;;;1.98;;
14526;SDS011;7350;51.208;4.238;2023-03-01T14:22:34;2.90;;;2.00;;
14526;SDS011;7350;51.208;4.238;2023-03-01T14:25:05;2.40;;;2.00;;
14526;SDS011;7350;51.208;4.238;2023-03-01T14:27:42;2.17;;;1.75;;
14526;SDS011;7350;51.208;4.238;2023-03-01T14:30:11;2.30;;;2.00;;
14526;SDS011;7350;51.208;4.238;2023-03-01T14:32:43;2.20;;;1.88;;
14526;SDS011;7350;51.208;4.238;2023-03-01T14:35:20;2.45;;;2.08;;
14526;SDS011;7350;51.208;4.238;2023-03-01T14:37:48;2.10;;;1.90;;
14526;SDS011;7350;51.208;4.238;2023-03-01T14:40:26;2.70;;;2.45;;
14526;SDS011;7350;51.208;4.238;2023-03-01T14:42:55;3.90;;;2.00;;
14526;SDS011;7350;51.208;4.238;2023-03-01T14:45:25;2.50;;;1.80;;
14526;SDS011;7350;51.208;4.238;2023-03-01T14:47:57;2.90;;;1.92;;
14526;SDS011;7350;51.208;4.238;2023-03-01T14:50:27;2.60;;;1.92;;
14526;SDS011;7350;51.208;4.238;2023-03-01T14:52:56;2.90;;;2.28;;
14526;SDS011;7350;51.208;4.238;2023-03-01T14:55:26;3.72;;;1.90;;
14526;SDS011;7350;51.208;4.238;2023-03-01T14:57:57;1.80;;;1.70;;
14526;SDS011;7350;51.208;4.238;2023-03-01T15:00:26;2.30;;;1.75;;
14526;SDS011;7350;51.208;4.238;2023-03-01T15:02:55;2.30;;;1.77;;
14526;SDS011;7350;51.208;4.238;2023-03-01T15:05:27;2.10;;;1.85;;
14526;SDS011;7350;51.208;4.238;2023-03-01T15:07:56;1.90;;;1.80;;
14526;SDS011;7350;51.208;4.238;2023-03-01T15:10:26;2.65;;;1.90;;
14526;SDS011;7350;51.208;4.238;2023-03-01T15:12:54;2.75;;;2.13;;
14526;SDS011;7350;51.208;4.238;2023-03-01T15:15:32;2.25;;;1.95;;
14526;SDS011;7350;51.208;4.238;2023-03-01T15:18:03;2.67;;;1.95;;
14526;SDS011;7350;51.208;4.238;2023-03-01T15:20:39;2.13;;;1.80;;
14526;SDS011;7350;51.208;4.238;2023-03-01T15:23:12;2.20;;;1.73;;
14526;SDS011;7350;51.208;4.238;2023-03-01T15:25:48;2.47;;;1.90;;
14526;SDS011;7350;51.208;4.238;2023-03-01T15:28:22;4.25;;;2.08;;
14526;SDS011;7350;51.208;4.238;2023-03-01T15:30:52;1.88;;;1.70;;
14526;SDS011;7350;51.208;4.238;2023-03-01T15:33:31;2.55;;;1.80;;
14526;SDS011;7350;51.208;4.238;2023-03-01T15:36:00;2.30;;;1.83;;
14526;SDS011;7350;51.208;4.238;2023-03-01T15:38:30;1.98;;;1.75;;
14526;SDS011;7350;51.208;4.238;2023-03-01T15:41:00;3.30;;;2.10;;